Time;durP1;ratioP1;P1;durP2;ratioP2;P2;SDS_P1;SDS_P2;PMS_P1;PMS_P2;Temp;Humidity;BMP_temperature;BMP_pressure;BME280_temperature;BME280_humidity;BME280_pressure;Samples;Min_cycle;Max_cycle;Signal;HPM_P1;HPM_P2
2023/01/12 00:01:21;;;;;;;20.20;3.50;;;;;;;9.23;100.00;99699.59;4992281;28;20033;-59
2023/01/12 00:03:47;;;;;;;13.60;3.08;;;;;;;9.23;100.00;99686.38;4990415;28;20030;-53
2023/01/12 00:06:13;;;;;;;14.93;3.65;;;;;;;9.26;100.00;99687.81;4991935;28;20038;-58
2023/01/12 00:08:39;;;;;;;13.60;3.38;;;;;;;9.26;100.00;99688.63;4989357;28;20037;-55
2023/01/12 00:11:04;;;;;;;7.90;2.33;;;;;;;9.38;100.00;99696.78;4988453;28;20034;-57
2023/01/12 00:13:31;;;;;;;7.15;2.95;;;;;;;9.45;100.00;99679.09;4988351;28;20054;-58
2023/01/12 00:18:45;;;;;;;11.50;2.88;;;;;;;9.71;100.00;99672.16;4981700;28;20616;-65
2023/01/12 00:21:11;;;;;;;10.02;0.88;;;;;;;9.68;100.00;99651.38;4986676;28;20038;-62
2023/01/12 00:23:36;;;;;;;12.30;2.10;;;;;;;9.65;100.00;99659.72;4984526;28;20026;-64
2023/01/12 00:26:02;;;;;;;8.00;2.15;;;;;;;9.58;100.00;99659.75;4986793;28;20026;-59
2023/01/12 00:28:27;;;;;;;13.65;4.07;;;;;;;9.55;100.00;99666.25;4986895;28;20088;-56
2023/01/12 00:30:59;;;;;;;7.60;3.15;;;;;;;9.70;100.00;99679.25;4985433;28;20042;-61
2023/01/12 00:33:24;;;;;;;5.93;1.85;;;;;;;9.73;100.00;99657.69;4986858;28;20034;-63
2023/01/12 00:35:49;;;;;;;3.55;0.70;;;;;;;9.71;100.00;99683.56;4986305;28;20205;-54
2023/01/12 00:38:15;;;;;;;4.45;1.85;;;;;;;9.70;100.00;99657.28;4985780;28;20450;-59
2023/01/12 00:40:40;;;;;;;4.68;0.50;;;;;;;9.61;100.00;99654.84;4986692;28;20506;-58
2023/01/12 00:45:50;;;;;;;2.13;0.15;;;;;;;9.60;100.00;99652.41;4984705;28;20045;-65
2023/01/12 00:48:15;;;;;;;4.97;0.47;;;;;;;9.71;100.00;99654.44;4985372;28;20400;-53
2023/01/12 00:50:40;;;;;;;1.75;0.47;;;;;;;9.76;100.00;99648.53;4984375;28;20022;-56
2023/01/12 00:53:06;;;;;;;3.55;0.47;;;;;;;9.76;100.00;99644.06;4985896;28;20126;-54
2023/01/12 00:55:31;;;;;;;1.40;0.43;;;;;;;9.83;100.00;99652.81;4985405;28;20113;-54
2023/01/12 00:57:56;;;;;;;5.43;1.73;;;;;;;9.93;100.00;99636.47;4989466;28;20125;-51
2023/01/12 01:00:22;;;;;;;0.80;0.13;;;;;;;9.91;100.00;99643.00;4988910;28;20509;-57
2023/01/12 01:02:47;;;;;;;0.90;0.13;;;;;;;9.91;100.00;99627.09;4989674;28;20038;-54
2023/01/12 01:05:13;;;;;;;6.43;0.80;;;;;;;9.89;100.00;99637.13;4986705;28;20034;-51
2023/01/12 01:07:38;;;;;;;0.30;0.10;;;;;;;9.91;100.00;99637.69;4986633;28;20034;-62
2023/01/12 01:10:04;;;;;;;3.85;1.42;;;;;;;10.04;100.00;99624.41;4987588;28;20027;-64
2023/01/12 01:12:29;;;;;;;1.67;0.65;;;;;;;10.02;100.00;99624.66;4985697;28;20108;-54
2023/01/12 01:14:55;;;;;;;2.65;0.52;;;;;;;10.18;100.00;99604.81;4987377;28;20113;-51
2023/01/12 01:17:20;;;;;;;0.43;0.00;;;;;;;10.15;100.00;99612.38;4986393;28;20026;-57
2023/01/12 01:19:47;;;;;;;0.10;0.00;;;;;;;10.18;100.00;99602.19;4986117;28;20520;-58
2023/01/12 01:22:12;;;;;;;2.90;0.22;;;;;;;10.28;100.00;99606.25;4988586;28;20046;-56
2023/01/12 01:24:38;;;;;;;1.90;0.10;;;;;;;10.39;100.00;99600.28;4990709;28;20072;-53
2023/01/12 01:27:03;;;;;;;0.80;0.10;;;;;;;10.36;100.00;99576.88;4984929;28;20092;-59
2023/01/12 01:29:28;;;;;;;1.17;0.05;;;;;;;10.32;100.00;99591.56;4987642;28;20200;-58
2023/01/12 01:31:54;;;;;;;0.70;0.47;;;;;;;10.29;100.00;99576.09;4987656;28;20038;-56
2023/01/12 01:34:20;;;;;;;2.90;0.75;;;;;;;10.21;100.00;99577.91;4989309;28;20355;-56
2023/01/12 01:36:45;;;;;;;2.42;0.20;;;;;;;10.48;100.00;99585.78;4987603;28;20392;-52
2023/01/12 01:39:10;;;;;;;2.83;0.00;;;;;;;10.32;100.00;99581.75;4987620;28;20546;-57
2023/01/12 01:41:36;;;;;;;3.55;0.00;;;;;;;10.44;100.00;99568.66;4990452;28;20109;-53
2023/01/12 01:44:25;;;;;;;1.85;0.20;;;;;;;10.34;100.00;99569.13;4988390;28;20030;-64
2023/01/12 01:46:54;;;;;;;1.92;0.00;;;;;;;10.30;100.00;99570.59;4989455;28;20026;-53
2023/01/12 01:49:42;;;;;;;3.80;0.10;;;;;;;10.34;100.00;99552.41;4986828;28;20232;-57
2023/01/12 01:52:07;;;;;;;2.72;0.43;;;;;;;10.33;100.00;99574.66;5011017;28;20089;-54
2023/01/12 01:54:58;;;;;;;0.98;0.05;;;;;;;10.38;100.00;99570.34;4990383;28;20027;-52
2023/01/12 01:57:28;;;;;;;0.77;0.00;;;;;;;10.24;100.00;99560.78;4988294;28;20450;-53
2023/01/12 01:59:56;;;;;;;0.88;0.88;;;;;;;10.36;100.00;99568.91;4991431;28;20030;-61
2023/01/12 02:02:24;;;;;;;2.92;0.13;;;;;;;10.29;100.00;99582.19;4983877;28;20511;-54
2023/01/12 02:04:50;;;;;;;2.38;0.00;;;;;;;10.46;100.00;99579.88;4989400;28;20114;-54
2023/01/12 02:07:16;;;;;;;2.08;0.00;;;;;;;10.47;100.00;99570.88;4981523;28;20034;-55
2023/01/12 02:09:43;;;;;;;0.32;0.32;;;;;;;10.49;100.00;99574.16;4989912;28;20026;-54
2023/01/12 02:17:55;;;;;;;1.13;0.00;;;;;;;10.56;100.00;99561.66;4987388;28;20610;-51
2023/01/12 02:20:39;;;;;;;5.78;1.10;;;;;;;10.55;100.00;99561.88;4988289;28;20109;-57
2023/01/12 02:23:31;;;;;;;0.20;0.00;;;;;;;10.40;100.00;99575.41;4983121;28;20296;-61
2023/01/12 02:26:15;;;;;;;;;;;;;;;10.39;100.00;99563.19;4990138;28;20049;-58
2023/01/12 02:28:52;;;;;;;0.65;0.17;;;;;;;10.33;100.00;99580.75;4986233;28;20024;-58
2023/01/12 02:31:45;;;;;;;3.63;0.00;;;;;;;10.46;100.00;99585.19;4988667;28;20030;-62
2023/01/12 02:34:44;;;;;;;2.70;0.65;;;;;;;10.49;100.00;99566.19;4988621;28;20503;-59
2023/01/12 02:37:41;;;;;;;0.00;0.00;;;;;;;10.46;100.00;99569.28;4992109;28;20089;-62
2023/01/12 02:40:30;;;;;;;0.95;0.00;;;;;;;10.39;100.00;99579.09;4986481;28;20141;-54
2023/01/12 02:43:17;;;;;;;0.47;0.00;;;;;;;10.48;100.00;99591.88;4987915;28;20069;-61
2023/01/12 02:46:20;;;;;;;0.32;0.32;;;;;;;10.57;100.00;99589.78;4987799;28;20050;-58
2023/01/12 02:49:03;;;;;;;1.58;0.08;;;;;;;10.59;100.00;99555.94;4983313;28;20069;-66
2023/01/12 02:51:36;;;;;;;1.23;0.32;;;;;;;10.54;100.00;99571.66;4984400;28;20059;-57
2023/01/12 02:54:05;;;;;;;0.30;0.00;;;;;;;10.51;100.00;99569.44;4996476;28;20034;-58
2023/01/12 02:56:39;;;;;;;0.68;0.20;;;;;;;10.44;100.00;99564.16;4988170;28;20031;-65
2023/01/12 02:59:11;;;;;;;0.00;0.00;;;;;;;10.57;100.00;99588.97;4986200;28;20122;-54
2023/01/12 03:01:39;;;;;;;0.70;0.00;;;;;;;10.60;100.00;99578.75;4989440;28;20485;-52
2023/01/12 03:04:07;;;;;;;2.10;0.10;;;;;;;10.64;100.00;99577.31;4998325;28;20117;-53
2023/01/12 03:06:44;;;;;;;0.20;0.00;;;;;;;10.73;100.00;99599.06;4993019;28;20066;-52
2023/01/12 03:09:13;;;;;;;1.58;0.22;;;;;;;10.57;100.00;99575.72;4994573;28;20019;-54
2023/01/12 03:11:41;;;;;;;0.98;0.00;;;;;;;10.46;100.00;99582.53;4992457;28;20026;-55
2023/01/12 03:14:10;;;;;;;0.00;0.00;;;;;;;10.42;100.00;99581.31;4994810;28;20041;-60
2023/01/12 03:16:39;;;;;;;0.47;0.00;;;;;;;10.62;100.00;99587.31;4995962;28;20026;-56
2023/01/12 03:19:08;;;;;;;0.28;0.00;;;;;;;10.52;100.00;99576.38;5006614;28;20026;-56
2023/01/12 03:21:38;;;;;;;0.38;0.00;;;;;;;10.66;100.00;99598.31;4997411;28;20038;-58
2023/01/12 03:24:13;;;;;;;0.50;0.35;;;;;;;10.70;100.00;99584.41;4997784;28;20527;-54
2023/01/12 03:26:46;;;;;;;1.02;0.17;;;;;;;10.62;100.00;99579.38;4997685;28;20046;-52
2023/01/12 03:29:50;;;;;;;0.00;0.00;;;;;;;10.57;100.00;99584.50;4992734;28;20026;-65
2023/01/12 03:32:18;;;;;;;0.00;0.00;;;;;;;10.69;100.00;99588.09;4973708;28;20455;-66
2023/01/12 03:34:44;;;;;;;0.15;0.15;;;;;;;10.77;100.00;99599.47;4996510;28;20042;-58
2023/01/12 03:37:16;;;;;;;0.10;0.00;;;;;;;10.80;100.00;99594.56;4993075;28;20110;-58
2023/01/12 03:39:53;;;;;;;0.20;0.20;;;;;;;10.78;100.00;99585.19;4994590;28;20498;-54
2023/01/12 03:42:40;;;;;;;3.20;0.00;;;;;;;10.87;100.00;99599.81;5001828;28;20066;-57
2023/01/12 03:45:15;;;;;;;0.00;0.00;;;;;;;10.81;100.00;99590.06;4987983;28;20472;-59
2023/01/12 03:47:42;;;;;;;0.17;0.00;;;;;;;10.76;100.00;99585.38;4992298;28;20117;-58
2023/01/12 03:50:12;;;;;;;1.90;0.05;;;;;;;10.67;100.00;99592.78;4995458;28;20022;-53
2023/01/12 03:52:39;;;;;;;2.10;0.00;;;;;;;10.79;100.00;99597.41;5008463;28;20049;-57
2023/01/12 03:55:09;;;;;;;0.25;0.00;;;;;;;10.69;100.00;99588.09;4993842;28;20028;-55
2023/01/12 03:57:35;;;;;;;0.10;0.00;;;;;;;10.59;100.00;99589.59;4985588;28;20022;-57
2023/01/12 04:00:04;;;;;;;0.25;0.10;;;;;;;10.69;100.00;99598.69;4989459;28;20030;-52
2023/01/12 04:02:29;;;;;;;0.00;0.00;;;;;;;10.61;100.00;99603.41;4992177;28;20041;-57
2023/01/12 04:04:55;;;;;;;0.00;0.00;;;;;;;10.69;100.00;99609.31;4990560;28;20034;-53
2023/01/12 04:07:21;;;;;;;1.10;0.05;;;;;;;10.74;100.00;99586.63;4989671;28;20452;-60
2023/01/12 04:09:47;;;;;;;0.00;0.00;;;;;;;10.72;100.00;99600.13;4992103;28;20029;-55
2023/01/12 04:12:12;;;;;;;0.00;0.00;;;;;;;10.73;100.00;99609.69;4993106;28;20030;-54
2023/01/12 04:14:43;;;;;;;0.80;0.00;;;;;;;10.80;100.00;99597.22;4988163;28;20049;-55
2023/01/12 04:17:14;;;;;;;0.00;0.00;;;;;;;10.81;100.00;99600.66;4992598;28;20772;-56
2023/01/12 04:19:40;;;;;;;0.15;0.10;;;;;;;10.78;100.00;99606.41;4991697;28;20065;-54
2023/01/12 04:24:50;;;;;;;1.88;0.00;;;;;;;10.83;100.00;99598.63;4993943;28;20033;-52
2023/01/12 04:27:16;;;;;;;0.10;0.00;;;;;;;10.84;100.00;99601.06;4987302;28;20038;-55
2023/01/12 04:29:42;;;;;;;2.15;0.00;;;;;;;10.82;100.00;99589.06;4991320;28;20050;-58
2023/01/12 04:32:07;;;;;;;3.05;1.13;;;;;;;10.82;100.00;99599.66;4995048;28;20334;-54
2023/01/12 04:34:33;;;;;;;0.38;0.00;;;;;;;10.80;100.00;99599.84;4997512;28;20150;-53
2023/01/12 04:37:00;;;;;;;1.70;0.25;;;;;;;10.63;100.00;99602.19;4989773;28;20026;-56
2023/01/12 04:39:25;;;;;;;0.57;0.10;;;;;;;10.79;100.00;99608.84;4987442;28;20034;-52
2023/01/12 04:41:51;;;;;;;0.00;0.00;;;;;;;10.77;100.00;99599.47;4992456;28;20033;-62
2023/01/12 04:44:16;;;;;;;0.00;0.00;;;;;;;10.80;100.00;99599.06;4991864;28;20446;-55
2023/01/12 04:46:41;;;;;;;0.00;0.00;;;;;;;10.78;100.00;99601.91;4990049;28;20066;-56
2023/01/12 04:49:07;;;;;;;0.00;0.00;;;;;;;10.68;100.00;99601.56;4994924;28;20439;-65
2023/01/12 04:51:32;;;;;;;3.60;0.75;;;;;;;10.74;100.00;99591.94;4986311;28;20054;-54
2023/01/12 04:53:58;;;;;;;0.00;0.00;;;;;;;10.70;100.00;99602.97;4989861;28;20473;-55
2023/01/12 04:56:23;;;;;;;0.17;0.00;;;;;;;10.79;100.00;99608.00;4988949;28;20030;-65
2023/01/12 04:58:54;;;;;;;0.30;0.10;;;;;;;10.88;100.00;99596.94;4986571;28;20085;-60
2023/01/12 05:01:21;;;;;;;0.00;0.00;;;;;;;10.74;100.00;99597.22;4985121;28;20038;-56
2023/01/12 05:03:46;;;;;;;2.45;0.00;;;;;;;10.77;100.00;99587.03;4993787;28;20291;-63
2023/01/12 05:06:12;;;;;;;0.00;0.00;;;;;;;10.91;100.00;99598.34;4998171;28;20120;-52
2023/01/12 05:11:28;;;;;;;0.00;0.00;;;;;;;11.09;100.00;99590.47;4991187;28;20121;-52
2023/01/12 05:13:54;;;;;;;0.22;0.22;;;;;;;11.24;100.00;99582.19;4996402;28;20049;-61
2023/01/12 05:16:20;;;;;;;0.32;0.00;;;;;;;11.12;100.00;99587.38;4995316;28;20557;-63
2023/01/12 05:18:46;;;;;;;0.00;0.00;;;;;;;11.07;100.00;99576.59;4992696;28;20058;-54
2023/01/12 05:21:14;;;;;;;0.82;0.00;;;;;;;10.97;100.00;99572.81;4992362;28;20026;-54
2023/01/12 05:23:40;;;;;;;0.00;0.00;;;;;;;10.81;100.00;99574.16;4991215;28;20396;-55
2023/01/12 05:26:06;;;;;;;0.00;0.00;;;;;;;10.80;100.00;99583.94;4990845;28;20030;-52
2023/01/12 05:28:32;;;;;;;0.00;0.00;;;;;;;10.68;100.00;99590.94;4988418;28;20027;-55
2023/01/12 05:31:03;;;;;;;0.32;0.00;;;;;;;10.77;100.00;99580.91;4991754;28;20027;-52
2023/01/12 05:33:29;;;;;;;0.88;0.00;;;;;;;10.77;100.00;99592.34;4991109;28;20098;-64
2023/01/12 05:35:54;;;;;;;2.75;0.20;;;;;;;10.73;100.00;99587.66;4999884;28;20030;-57
2023/01/12 05:38:19;;;;;;;0.32;0.00;;;;;;;10.72;100.00;99597.47;4991519;28;20288;-50
2023/01/12 05:40:45;;;;;;;0.40;0.00;;;;;;;10.76;100.00;99600.50;4998648;28;20105;-50
2023/01/12 05:45:56;;;;;;;0.10;0.00;;;;;;;10.83;100.00;99598.63;4990346;28;20073;-55
2023/01/12 05:48:21;;;;;;;0.10;0.10;;;;;;;10.83;100.00;99588.00;4995779;28;20124;-53
2023/01/12 05:50:46;;;;;;;0.73;0.73;;;;;;;10.83;100.00;99593.31;4991234;28;20030;-53
2023/01/12 05:53:12;;;;;;;0.03;0.00;;;;;;;10.89;100.00;99592.44;4989910;28;20464;-53
2023/01/12 05:55:38;;;;;;;0.10;0.10;;;;;;;10.82;100.00;99581.09;4990358;28;20031;-55
2023/01/12 05:58:03;;;;;;;0.00;0.00;;;;;;;10.78;100.00;99566.63;4985839;28;20037;-49
2023/01/12 06:00:29;;;;;;;0.08;0.00;;;;;;;10.93;100.00;99567.13;4996310;28;20056;-52
2023/01/12 06:02:54;;;;;;;0.00;0.00;;;;;;;11.02;100.00;99565.84;4989204;28;20129;-54
2023/01/12 06:05:19;;;;;;;0.00;0.00;;;;;;;10.98;100.00;99575.25;4992941;28;20027;-51
2023/01/12 06:07:45;;;;;;;0.10;0.00;;;;;;;11.09;100.00;99571.09;4989144;28;20097;-56
2023/01/12 06:10:11;;;;;;;0.47;0.00;;;;;;;11.09;100.00;99576.38;4991036;28;20022;-53
2023/01/12 06:15:20;;;;;;;1.40;0.00;;;;;;;11.07;100.00;99559.88;4989241;28;20045;-54
2023/01/12 06:17:45;;;;;;;0.15;0.15;;;;;;;11.13;100.00;99572.28;4996611;28;20034;-54
2023/01/12 06:20:15;;;;;;;1.85;0.00;;;;;;;11.04;100.00;99568.28;4991479;28;20030;-53
2023/01/12 06:22:44;;;;;;;1.17;0.52;;;;;;;11.08;100.00;99558.88;4996902;28;20061;-55
2023/01/12 06:25:11;;;;;;;1.77;0.00;;;;;;;11.00;100.00;99569.75;4990232;28;20034;-54
2023/01/12 06:27:37;;;;;;;1.35;0.17;;;;;;;10.97;100.00;99563.03;4987120;28;20460;-49
2023/01/12 06:30:07;;;;;;;1.17;0.25;;;;;;;11.09;100.00;99577.19;4991485;28;20090;-59
2023/01/12 06:32:32;;;;;;;0.00;0.00;;;;;;;10.95;100.00;99588.94;4996046;28;20060;-54
2023/01/12 06:34:57;;;;;;;0.00;0.00;;;;;;;11.14;100.00;99576.56;4992298;28;20487;-51
2023/01/12 06:37:26;;;;;;;1.75;0.20;;;;;;;11.09;100.00;99579.84;4994604;28;20041;-53
2023/01/12 06:39:51;;;;;;;0.75;0.00;;;;;;;11.09;100.00;99587.81;4999094;28;20076;-50
2023/01/12 06:42:28;;;;;;;1.10;0.00;;;;;;;11.00;100.00;99589.13;5001970;28;20641;-53
2023/01/12 06:44:55;;;;;;;0.00;0.00;;;;;;;10.99;100.00;99587.47;4992222;28;20104;-54
2023/01/12 06:47:21;;;;;;;1.17;0.00;;;;;;;10.99;100.00;99589.31;5001406;28;20034;-54
2023/01/12 06:49:46;;;;;;;0.10;0.00;;;;;;;10.99;100.00;99590.13;4997258;28;20030;-53
2023/01/12 06:52:12;;;;;;;0.10;0.00;;;;;;;10.97;100.00;99600.16;4993687;28;20042;-51
2023/01/12 06:54:38;;;;;;;0.00;0.00;;;;;;;10.99;100.00;99591.97;4996601;28;20436;-55
2023/01/12 06:57:03;;;;;;;0.95;0.00;;;;;;;10.97;100.00;99601.97;4985585;28;20209;-54
2023/01/12 06:59:28;;;;;;;0.00;0.00;;;;;;;10.91;100.00;99612.41;4994234;28;20058;-51
2023/01/12 07:01:54;;;;;;;0.05;0.00;;;;;;;11.04;100.00;99614.16;4997737;28;20022;-53
2023/01/12 07:04:19;;;;;;;0.30;0.00;;;;;;;11.07;100.00;99615.59;4998633;28;20065;-52
2023/01/12 07:06:45;;;;;;;0.10;0.00;;;;;;;11.03;100.00;99619.72;4994495;28;20408;-52
2023/01/12 07:09:11;;;;;;;0.28;0.28;;;;;;;10.99;100.00;99626.47;4989050;28;20054;-52
2023/01/12 07:11:36;;;;;;;0.30;0.13;;;;;;;11.09;100.00;99624.16;4990214;28;20021;-54
2023/01/12 07:14:01;;;;;;;1.02;0.20;;;;;;;11.16;100.00;99629.41;4990812;28;20046;-56
2023/01/12 07:16:26;;;;;;;0.00;0.00;;;;;;;11.21;100.00;99630.38;4988785;28;20094;-51
2023/01/12 07:18:52;;;;;;;0.00;0.00;;;;;;;11.12;100.00;99632.47;4990400;28;20141;-53
2023/01/12 07:21:18;;;;;;;0.00;0.00;;;;;;;11.05;100.00;99633.56;4984682;28;20353;-51
2023/01/12 07:23:44;;;;;;;0.00;0.00;;;;;;;11.02;100.00;99636.63;4984871;28;20388;-52
2023/01/12 07:26:10;;;;;;;0.22;0.00;;;;;;;11.08;100.00;99647.22;4987712;28;20030;-55
2023/01/12 07:28:36;;;;;;;0.30;0.00;;;;;;;11.10;100.00;99647.81;4984924;28;20034;-55
2023/01/12 07:31:04;;;;;;;0.00;0.00;;;;;;;11.02;100.00;99642.78;4986535;28;20125;-53
2023/01/12 07:33:29;;;;;;;0.00;0.00;;;;;;;11.10;100.00;99639.84;4989323;28;20041;-51
2023/01/12 07:35:59;;;;;;;0.88;0.00;;;;;;;11.10;100.00;99655.78;4987236;28;20035;-53
2023/01/12 07:38:26;;;;;;;0.00;0.00;;;;;;;11.04;100.00;99653.97;4982138;28;20049;-52
2023/01/12 07:40:51;;;;;;;0.10;0.10;;;;;;;10.95;100.00;99651.81;4983626;28;20502;-51
2023/01/12 07:43:18;;;;;;;0.00;0.00;;;;;;;10.97;100.00;99655.03;4986973;28;20038;-51
2023/01/12 07:45:44;;;;;;;0.00;0.00;;;;;;;11.00;100.00;99663.38;4983816;28;21348;-51
2023/01/12 07:48:09;;;;;;;1.75;0.00;;;;;;;10.95;100.00;99659.75;4980696;28;20038;-53
2023/01/12 07:50:35;;;;;;;1.13;0.00;;;;;;;11.04;100.00;99667.22;4994807;28;20045;-52
2023/01/12 07:53:01;;;;;;;0.00;0.00;;;;;;;11.07;100.00;99671.28;4992568;28;20057;-53
2023/01/12 07:55:30;;;;;;;0.00;0.00;;;;;;;11.04;100.00;99664.56;4992428;28;20030;-56
2023/01/12 07:57:58;;;;;;;0.00;0.00;;;;;;;11.16;100.00;99666.56;4989564;28;20026;-52
2023/01/12 08:00:24;;;;;;;0.10;0.00;;;;;;;11.16;100.00;99653.28;4991940;28;20036;-57
2023/01/12 08:02:51;;;;;;;0.10;0.00;;;;;;;11.04;100.00;99650.50;4989000;28;20137;-55
2023/01/12 08:05:17;;;;;;;0.00;0.00;;;;;;;10.96;100.00;99656.88;4986816;28;20030;-53
2023/01/12 08:07:43;;;;;;;0.00;0.00;;;;;;;10.96;100.00;99661.38;4990461;28;20434;-55
2023/01/12 08:10:09;;;;;;;0.00;0.00;;;;;;;10.90;100.00;99661.19;4991895;28;20023;-53
2023/01/12 08:12:35;;;;;;;0.00;0.00;;;;;;;11.00;100.00;99659.94;4989439;28;20042;-51
2023/01/12 08:15:02;;;;;;;0.00;0.00;;;;;;;10.93;100.00;99662.59;4993569;28;20022;-52
2023/01/12 08:17:31;;;;;;;0.00;0.00;;;;;;;10.99;100.00;99666.25;4992545;28;21135;-51
2023/01/12 08:20:07;;;;;;;0.00;0.00;;;;;;;11.00;100.00;99674.00;4999073;28;20388;-54
2023/01/12 08:22:38;;;;;;;0.35;0.00;;;;;;;11.00;100.00;99670.53;4995465;28;20397;-54
2023/01/12 08:25:14;;;;;;;0.00;0.00;;;;;;;11.02;100.00;99687.03;4990096;28;20499;-55
2023/01/12 08:27:44;;;;;;;0.05;0.00;;;;;;;11.10;100.00;99684.13;4990317;28;20087;-55
2023/01/12 08:30:13;;;;;;;0.10;0.00;;;;;;;11.06;100.00;99678.44;4989417;28;20110;-55
2023/01/12 08:32:39;;;;;;;0.85;0.25;;;;;;;11.07;100.00;99681.91;4991355;28;20050;-50
2023/01/12 08:35:05;;;;;;;1.38;0.00;;;;;;;11.05;100.00;99671.53;4990790;28;20262;-52
2023/01/12 08:37:32;;;;;;;0.32;0.10;;;;;;;10.96;100.00;99671.97;4992283;28;20503;-56
2023/01/12 08:39:58;;;;;;;2.05;0.00;;;;;;;10.82;100.00;99679.22;4997455;28;20023;-52
2023/01/12 08:42:25;;;;;;;1.10;0.10;;;;;;;10.99;100.00;99676.84;4992954;28;20069;-61
2023/01/12 08:44:50;;;;;;;0.70;0.00;;;;;;;11.12;100.00;99677.56;4986426;28;20113;-54
2023/01/12 08:47:19;;;;;;;0.00;0.00;;;;;;;11.09;100.00;99667.41;4990393;28;20101;-54
2023/01/12 08:49:45;;;;;;;0.00;0.00;;;;;;;11.07;100.00;99658.03;4991935;28;20121;-54
2023/01/12 08:52:10;;;;;;;0.28;0.00;;;;;;;11.01;100.00;99666.84;4991619;28;20140;-55
2023/01/12 08:54:36;;;;;;;0.52;0.00;;;;;;;10.93;100.00;99665.25;4991213;28;20029;-50
2023/01/12 08:57:01;;;;;;;0.08;0.00;;;;;;;10.93;100.00;99659.97;4990935;28;20019;-55
2023/01/12 08:59:27;;;;;;;0.00;0.00;;;;;;;11.04;100.00;99672.53;4989905;28;20061;-51
2023/01/12 09:01:52;;;;;;;0.03;0.00;;;;;;;11.05;100.00;99666.22;4996447;28;20034;-52
2023/01/12 09:04:17;;;;;;;0.38;0.00;;;;;;;11.07;100.00;99669.44;4987787;28;20045;-53
2023/01/12 09:06:44;;;;;;;0.38;0.00;;;;;;;11.03;100.00;99662.97;4988429;28;20377;-56
2023/01/12 09:09:15;;;;;;;2.00;0.00;;;;;;;11.01;100.00;99665.00;4995029;28;20034;-52
2023/01/12 09:11:42;;;;;;;0.93;0.90;;;;;;;11.01;100.00;99662.34;4992214;28;20038;-51
2023/01/12 09:14:09;;;;;;;0.38;0.38;;;;;;;11.09;100.00;99667.41;4992290;28;20447;-51
2023/01/12 09:16:34;;;;;;;1.30;0.00;;;;;;;11.13;100.00;99667.81;4996139;28;20041;-50
2023/01/12 09:19:00;;;;;;;0.77;0.00;;;;;;;11.23;100.00;99662.00;4993999;28;21008;-54
2023/01/12 09:21:27;;;;;;;0.38;0.00;;;;;;;11.14;100.00;99659.59;4991277;28;20101;-52
2023/01/12 09:23:53;;;;;;;0.80;0.32;;;;;;;11.08;100.00;99663.13;4992669;28;20476;-56
2023/01/12 09:26:22;;;;;;;3.38;0.28;;;;;;;11.13;100.00;99681.88;4991806;28;20029;-50
2023/01/12 09:28:48;;;;;;;0.00;0.00;;;;;;;11.11;100.00;99678.63;4987121;28;20034;-56
2023/01/12 09:31:18;;;;;;;1.20;0.20;;;;;;;11.14;100.00;99675.53;4993681;28;20105;-53
2023/01/12 09:33:44;;;;;;;1.83;0.77;;;;;;;11.08;100.00;99673.75;4991427;28;20075;-53
2023/01/12 09:36:12;;;;;;;1.17;0.30;;;;;;;11.12;100.00;99672.28;4991109;28;20295;-52
2023/01/12 09:38:40;;;;;;;1.77;0.10;;;;;;;11.28;100.00;99668.31;4992103;28;20026;-51
2023/01/12 09:47:02;;;;;;;0.98;0.10;;;;;;;11.35;100.00;99661.09;4991303;28;20049;-52
2023/01/12 09:49:33;;;;;;;0.75;0.10;;;;;;;11.46;100.00;99658.75;4992415;28;20034;-53
2023/01/12 09:52:07;;;;;;;0.35;0.00;;;;;;;11.65;100.00;99646.38;4988598;28;20403;-54
2023/01/12 09:54:34;;;;;;;2.38;0.00;;;;;;;11.81;100.00;99642.34;4989021;28;20121;-51
2023/01/12 09:57:25;;;;;;;0.52;0.38;;;;;;;11.72;100.00;99636.47;4990977;28;20030;-52
2023/01/12 09:59:51;;;;;;;0.32;0.32;;;;;;;11.69;100.00;99631.59;4995388;28;20069;-50
2023/01/12 10:02:16;;;;;;;0.77;0.00;;;;;;;11.69;100.00;99635.06;4989326;28;20026;-54
2023/01/12 10:04:42;;;;;;;0.30;0.00;;;;;;;11.65;100.00;99627.78;4990048;28;20038;-53
2023/01/12 10:07:13;;;;;;;1.25;0.00;;;;;;;11.56;100.00;99630.72;4991185;28;20112;-51
2023/01/12 10:09:39;;;;;;;;;;;;;;;11.58;100.00;99633.16;4993984;28;20519;-54
2023/01/12 10:12:36;;;;;;;0.15;0.10;;;;;;;11.45;100.00;99644.69;4991268;28;19960;-53
2023/01/12 10:15:07;;;;;;;0.17;0.00;;;;;;;11.37;100.00;99642.31;4991530;28;20045;-55
2023/01/12 10:17:49;;;;;;;0.17;0.00;;;;;;;11.42;100.00;99644.31;4990740;28;20030;-52
2023/01/12 10:20:27;;;;;;;0.80;0.10;;;;;;;11.40;100.00;99647.19;4990740;28;20365;-50
2023/01/12 10:23:07;;;;;;;1.95;0.00;;;;;;;11.49;100.00;99643.22;4988072;28;20454;-55
2023/01/12 10:25:44;;;;;;;0.10;0.00;;;;;;;11.50;100.00;99641.38;4993646;28;20361;-51
2023/01/12 10:28:24;;;;;;;0.00;0.00;;;;;;;11.49;100.00;99639.78;4986698;28;20538;-57
2023/01/12 10:30:51;;;;;;;0.10;0.00;;;;;;;11.57;100.00;99640.31;4990345;28;20030;-58
2023/01/12 10:33:25;;;;;;;0.60;0.00;;;;;;;11.60;100.00;99635.59;4990376;28;20025;-62
2023/01/12 10:36:07;;;;;;;0.82;0.20;;;;;;;11.59;100.00;99632.13;4991438;28;20403;-50
2023/01/12 10:38:36;;;;;;;0.10;0.10;;;;;;;11.71;100.00;99621.59;4996898;28;20029;-54
2023/01/12 10:41:22;;;;;;;0.28;0.00;;;;;;;11.64;100.00;99611.03;4990843;28;20031;-54
2023/01/12 10:43:53;;;;;;;0.57;0.00;;;;;;;11.60;100.00;99623.13;4990425;28;20041;-54
2023/01/12 10:46:21;;;;;;;2.40;0.13;;;;;;;11.78;100.00;99617.03;4990720;28;20036;-51
2023/01/12 10:48:51;;;;;;;1.77;0.30;;;;;;;11.63;100.00;99611.25;4994722;28;20491;-53
2023/01/12 10:51:31;;;;;;;1.65;0.98;;;;;;;11.62;100.00;99613.09;4991825;28;20079;-50
2023/01/12 10:54:07;;;;;;;3.10;0.10;;;;;;;11.60;100.00;99614.34;4989778;28;20738;-52
2023/01/12 10:56:39;;;;;;;0.13;0.05;;;;;;;11.53;100.00;99611.75;4983444;28;20054;-53
2023/01/12 10:59:07;;;;;;;0.73;0.00;;;;;;;11.50;100.00;99607.69;4989712;28;20034;-57
2023/01/12 11:02:02;;;;;;;0.25;0.00;;;;;;;11.49;100.00;99608.72;4991579;28;20058;-54
2023/01/12 11:04:28;;;;;;;0.50;0.10;;;;;;;11.62;100.00;99620.25;4988650;28;20042;-55
2023/01/12 11:07:13;;;;;;;1.25;0.00;;;;;;;11.56;100.00;99608.66;4997104;28;20041;-51
2023/01/12 11:09:40;;;;;;;0.43;0.30;;;;;;;11.58;100.00;99601.28;4992493;28;20404;-50
2023/01/12 11:12:33;;;;;;;1.60;0.10;;;;;;;11.74;100.00;99603.34;4986797;28;20042;-56
2023/01/12 11:15:13;;;;;;;1.10;0.85;;;;;;;11.79;100.00;99610.69;4986051;28;20391;-52
2023/01/12 11:17:59;;;;;;;2.45;0.00;;;;;;;11.76;100.00;99581.91;4989368;28;20503;-50
2023/01/12 11:21:05;;;;;;;1.30;0.00;;;;;;;11.84;100.00;99573.63;4984113;28;20190;-52
2023/01/12 11:23:45;;;;;;;0.98;0.10;;;;;;;11.75;100.00;99574.97;4968672;28;20047;-56
2023/01/12 11:26:21;;;;;;;0.52;0.00;;;;;;;11.83;100.00;99560.59;4968638;28;20547;-56
2023/01/12 11:28:51;;;;;;;5.68;0.30;;;;;;;11.81;100.00;99552.84;4987235;28;20400;-52
2023/01/12 11:31:41;;;;;;;0.38;0.10;;;;;;;11.86;100.00;99571.63;4992244;28;20053;-56
2023/01/12 11:34:21;;;;;;;0.35;0.10;;;;;;;11.78;100.00;99550.63;4998061;28;20033;-53
2023/01/12 11:36:51;;;;;;;0.38;0.00;;;;;;;11.73;100.00;99545.19;4987006;28;20030;-52
2023/01/12 11:39:22;;;;;;;2.78;0.03;;;;;;;11.77;100.00;99541.88;4997048;28;20029;-59
2023/01/12 11:44:50;;;;;;;0.20;0.20;;;;;;;11.60;100.00;99550.63;4991157;28;20108;-55
2023/01/12 11:47:23;;;;;;;1.90;0.22;;;;;;;11.65;100.00;99535.66;4993557;28;20266;-60
2023/01/12 11:49:57;;;;;;;0.57;0.00;;;;;;;11.65;100.00;99537.50;4996627;28;20030;-52
2023/01/12 11:52:25;;;;;;;4.43;0.00;;;;;;;11.74;100.00;99525.53;4996623;28;20064;-51
2023/01/12 11:54:50;;;;;;;0.35;0.20;;;;;;;11.63;100.00;99528.94;4994593;28;20073;-57
2023/01/12 11:57:18;;;;;;;1.63;0.20;;;;;;;11.55;100.00;99519.44;4993612;28;20030;-53
2023/01/12 11:59:55;;;;;;;0.85;0.10;;;;;;;11.56;100.00;99521.88;4993047;28;20483;-54
2023/01/12 12:02:40;;;;;;;1.15;0.20;;;;;;;11.56;100.00;99519.22;4997054;28;20117;-53
2023/01/12 12:05:23;;;;;;;5.30;2.40;;;;;;;11.51;100.00;99523.53;4991857;28;20031;-54
2023/01/12 12:07:52;;;;;;;0.45;0.00;;;;;;;11.56;100.00;99518.38;5007586;28;20061;-54
2023/01/12 12:10:21;;;;;;;0.63;0.55;;;;;;;11.56;100.00;99523.69;4992174;28;20038;-52